KEYW/EYW METAR and TAF weather

Enter ICAO airport designator
Station Type Date Time Source
KEYW METAR 2022/06/28 23:53 UTC NOAA

KEYW 282353Z 12009KT 10SM FEW025 29/24 A3006 RMK AO2 SLP180 T02890239 10311 20289 53004


Station Type Date Time Source
KEYW Decoded METAR 2022/06/28 23:53 UTC NOAA

KEY WEST INTERNATIONAL AIRPORT , FL, United States (KEYW) 24-33N 81-46W 5M
Jun 28, 2022 - 07:53 PM EDT / 2022.06.28 2353 UTC
Wind: from the ESE (120 degrees) at 10 MPH (9 KT):0
Visibility: 10 mile(s):0
Sky conditions: mostly clear
Temperature: 84.0 F (28.9 C)
Dew Point: 75.0 F (23.9 C)
Relative Humidity: 74%
Pressure (altimeter): 30.06 in. Hg (1017 hPa)
Pressure tendency: 0.01 inches (0.4 hPa) higher than three hours ago
ob: KEYW 282353Z 12009KT 10SM FEW025 29/24 A3006 RMK AO2 SLP180 T02890239 10311 20289 53004
cycle: 0

Station Type Date Time Source
KEYW TAF 2022/06/28 22:48 UTC NOAA

TAF
AMD KEYW 282147Z 2822/2918 13009KT P6SM FEW025

Example: see airport list